sensor_id;sensor_type;location;lat;lon;timestamp;temperature;humidity
12845;DHT22;68700;48.534;9.196;2023-07-22T00:02:40;13.00;1.00
12845;DHT22;68700;48.534;9.196;2023-07-22T00:06:05;12.90;1.00
12845;DHT22;68700;48.534;9.196;2023-07-22T00:09:27;12.90;1.00
12845;DHT22;68700;48.534;9.196;2023-07-22T00:12:49;12.90;1.00
12845;DHT22;68700;48.534;9.196;2023-07-22T00:16:12;12.90;1.00
12845;DHT22;68700;48.534;9.196;2023-07-22T00:19:34;12.90;1.00
12845;DHT22;68700;48.534;9.196;2023-07-22T00:22:56;12.90;1.00
12845;DHT22;68700;48.534;9.196;2023-07-22T00:26:18;12.90;1.00
12845;DHT22;68700;48.534;9.196;2023-07-22T00:29:40;12.90;1.00
12845;DHT22;68700;48.534;9.196;2023-07-22T00:33:03;12.90;1.00
12845;DHT22;68700;48.534;9.196;2023-07-22T00:36:26;12.90;1.00
12845;DHT22;68700;48.534;9.196;2023-07-22T00:39:49;12.90;1.00
12845;DHT22;68700;48.534;9.196;2023-07-22T00:43:11;12.80;1.00
12845;DHT22;68700;48.534;9.196;2023-07-22T00:46:33;12.80;1.00
12845;DHT22;68700;48.534;9.196;2023-07-22T00:49:56;12.70;1.00
12845;DHT22;68700;48.534;9.196;2023-07-22T00:53:18;12.70;1.00
12845;DHT22;68700;48.534;9.196;2023-07-22T00:56:40;12.70;1.00
12845;DHT22;68700;48.534;9.196;2023-07-22T01:00:04;12.50;1.00
12845;DHT22;68700;48.534;9.196;2023-07-22T01:03:26;12.50;1.00
12845;DHT22;68700;48.534;9.196;2023-07-22T01:06:51;12.40;1.00
12845;DHT22;68700;48.534;9.196;2023-07-22T01:10:13;12.30;1.00
12845;DHT22;68700;48.534;9.196;2023-07-22T01:13:36;12.30;1.00
12845;DHT22;68700;48.534;9.196;2023-07-22T01:16:58;12.20;1.00
12845;DHT22;68700;48.534;9.196;2023-07-22T01:20:20;12.20;1.00
12845;DHT22;68700;48.534;9.196;2023-07-22T01:23:43;12.10;1.00
12845;DHT22;68700;48.534;9.196;2023-07-22T01:27:05;12.10;1.00
12845;DHT22;68700;48.534;9.196;2023-07-22T01:30:28;12.10;1.00
12845;DHT22;68700;48.534;9.196;2023-07-22T01:33:50;12.00;1.00
12845;DHT22;68700;48.534;9.196;2023-07-22T01:37:12;11.90;1.00
12845;DHT22;68700;48.534;9.196;2023-07-22T01:40:36;11.90;1.00
12845;DHT22;68700;48.534;9.196;2023-07-22T01:43:57;11.90;1.00
12845;DHT22;68700;48.534;9.196;2023-07-22T01:47:20;11.90;1.00
12845;DHT22;68700;48.534;9.196;2023-07-22T01:50:42;11.80;1.00
12845;DHT22;68700;48.534;9.196;2023-07-22T01:54:04;11.80;9.40
12845;DHT22;68700;48.534;9.196;2023-07-22T01:57:27;11.80;1.00
12845;DHT22;68700;48.534;9.196;2023-07-22T02:00:49;11.80;1.00
12845;DHT22;68700;48.534;9.196;2023-07-22T02:04:11;11.70;1.00
12845;DHT22;68700;48.534;9.196;2023-07-22T02:07:33;11.70;1.00
12845;DHT22;68700;48.534;9.196;2023-07-22T02:11:00;11.70;1.00
12845;DHT22;68700;48.534;9.196;2023-07-22T02:14:23;11.70;1.00
12845;DHT22;68700;48.534;9.196;2023-07-22T02:17:45;11.60;1.00
12845;DHT22;68700;48.534;9.196;2023-07-22T02:21:07;11.60;3.20
12845;DHT22;68700;48.534;9.196;2023-07-22T02:24:28;11.60;17.10
12845;DHT22;68700;48.534;9.196;2023-07-22T02:27:50;11.70;21.30
12845;DHT22;68700;48.534;9.196;2023-07-22T02:31:13;11.70;22.40
12845;DHT22;68700;48.534;9.196;2023-07-22T02:34:35;11.70;26.10
12845;DHT22;68700;48.534;9.196;2023-07-22T02:37:59;11.70;24.50
12845;DHT22;68700;48.534;9.196;2023-07-22T02:41:22;11.70;20.70
12845;DHT22;68700;48.534;9.196;2023-07-22T02:44:44;11.80;19.10
12845;DHT22;68700;48.534;9.196;2023-07-22T02:48:07;11.80;12.90
12845;DHT22;68700;48.534;9.196;2023-07-22T02:51:29;11.80;8.40
12845;DHT22;68700;48.534;9.196;2023-07-22T02:55:07;11.70;2.30
12845;DHT22;68700;48.534;9.196;2023-07-22T02:58:31;11.70;6.20
12845;DHT22;68700;48.534;9.196;2023-07-22T03:01:53;11.70;8.30
12845;DHT22;68700;48.534;9.196;2023-07-22T03:05:16;11.70;12.20
12845;DHT22;68700;48.534;9.196;2023-07-22T03:08:38;11.60;17.50
12845;DHT22;68700;48.534;9.196;2023-07-22T03:12:00;11.60;25.80
12845;DHT22;68700;48.534;9.196;2023-07-22T03:15:22;11.60;26.60
12845;DHT22;68700;48.534;9.196;2023-07-22T03:18:46;11.60;30.60
12845;DHT22;68700;48.534;9.196;2023-07-22T03:22:09;11.60;31.10
12845;DHT22;68700;48.534;9.196;2023-07-22T03:25:32;11.50;55.40
12845;DHT22;68700;48.534;9.196;2023-07-22T03:28:53;11.50;24.80
12845;DHT22;68700;48.534;9.196;2023-07-22T03:32:15;11.40;23.70
12845;DHT22;68700;48.534;9.196;2023-07-22T03:35:37;11.40;28.00
12845;DHT22;68700;48.534;9.196;2023-07-22T03:39:01;11.40;26.20
12845;DHT22;68700;48.534;9.196;2023-07-22T03:42:23;11.30;35.50
12845;DHT22;68700;48.534;9.196;2023-07-22T03:45:45;11.40;44.20
12845;DHT22;68700;48.534;9.196;2023-07-22T03:49:07;11.40;41.80
12845;DHT22;68700;48.534;9.196;2023-07-22T03:52:28;11.40;38.00
12845;DHT22;68700;48.534;9.196;2023-07-22T03:55:51;11.40;34.00
12845;DHT22;68700;48.534;9.196;2023-07-22T03:59:13;11.40;35.00
12845;DHT22;68700;48.534;9.196;2023-07-22T04:02:35;11.30;37.80
12845;DHT22;68700;48.534;9.196;2023-07-22T04:05:57;11.40;38.90
12845;DHT22;68700;48.534;9.196;2023-07-22T04:09:19;11.40;40.30
12845;DHT22;68700;48.534;9.196;2023-07-22T04:12:42;11.40;37.90
12845;DHT22;68700;48.534;9.196;2023-07-22T04:16:04;11.50;34.30
12845;DHT22;68700;48.534;9.196;2023-07-22T04:19:26;11.40;41.20
12845;DHT22;68700;48.534;9.196;2023-07-22T04:22:48;11.50;43.80
12845;DHT22;68700;48.534;9.196;2023-07-22T04:26:10;11.60;48.80
12845;DHT22;68700;48.534;9.196;2023-07-22T04:29:33;11.60;46.00
12845;DHT22;68700;48.534;9.196;2023-07-22T04:32:55;11.60;39.00
12845;DHT22;68700;48.534;9.196;2023-07-22T04:36:16;11.70;30.60
12845;DHT22;68700;48.534;9.196;2023-07-22T04:39:38;11.70;27.40
12845;DHT22;68700;48.534;9.196;2023-07-22T04:43:00;11.80;29.20
12845;DHT22;68700;48.534;9.196;2023-07-22T04:46:25;11.80;27.70
12845;DHT22;68700;48.534;9.196;2023-07-22T04:49:47;11.80;26.00
12845;DHT22;68700;48.534;9.196;2023-07-22T04:53:09;11.90;33.10
12845;DHT22;68700;48.534;9.196;2023-07-22T04:56:30;12.00;32.80
12845;DHT22;68700;48.534;9.196;2023-07-22T04:59:52;12.10;29.30
12845;DHT22;68700;48.534;9.196;2023-07-22T05:03:15;12.20;22.70
12845;DHT22;68700;48.534;9.196;2023-07-22T05:06:38;12.30;12.60
12845;DHT22;68700;48.534;9.196;2023-07-22T05:10:00;12.30;1.00
12845;DHT22;68700;48.534;9.196;2023-07-22T05:13:22;12.50;1.00
12845;DHT22;68700;48.534;9.196;2023-07-22T05:16:44;12.60;1.00
12845;DHT22;68700;48.534;9.196;2023-07-22T05:20:07;12.60;1.00
12845;DHT22;68700;48.534;9.196;2023-07-22T05:23:32;12.70;1.00
12845;DHT22;68700;48.534;9.196;2023-07-22T05:26:54;12.70;1.00
12845;DHT22;68700;48.534;9.196;2023-07-22T05:30:16;12.90;1.00
12845;DHT22;68700;48.534;9.196;2023-07-22T05:33:37;13.00;1.00
12845;DHT22;68700;48.534;9.196;2023-07-22T05:37:01;13.10;1.00
12845;DHT22;68700;48.534;9.196;2023-07-22T05:40:22;13.20;1.00
12845;DHT22;68700;48.534;9.196;2023-07-22T05:43:44;13.40;1.00
12845;DHT22;68700;48.534;9.196;2023-07-22T05:47:06;13.50;1.00
12845;DHT22;68700;48.534;9.196;2023-07-22T05:50:28;13.70;1.00
12845;DHT22;68700;48.534;9.196;2023-07-22T05:53:51;13.90;1.00
12845;DHT22;68700;48.534;9.196;2023-07-22T05:57:13;14.00;1.00
12845;DHT22;68700;48.534;9.196;2023-07-22T06:00:34;14.30;1.00
12845;DHT22;68700;48.534;9.196;2023-07-22T06:03:56;14.70;1.00
12845;DHT22;68700;48.534;9.196;2023-07-22T06:07:18;15.20;1.00
12845;DHT22;68700;48.534;9.196;2023-07-22T06:10:42;15.50;1.00
12845;DHT22;68700;48.534;9.196;2023-07-22T06:14:04;15.60;1.00
12845;DHT22;68700;48.534;9.196;2023-07-22T06:17:26;15.90;1.00
12845;DHT22;68700;48.534;9.196;2023-07-22T06:20:48;16.00;1.00
12845;DHT22;68700;48.534;9.196;2023-07-22T06:24:09;16.20;1.00
12845;DHT22;68700;48.534;9.196;2023-07-22T06:27:33;16.70;1.00
12845;DHT22;68700;48.534;9.196;2023-07-22T06:30:55;17.10;1.00
12845;DHT22;68700;48.534;9.196;2023-07-22T06:34:16;17.50;1.00
12845;DHT22;68700;48.534;9.196;2023-07-22T06:37:38;18.00;1.00
12845;DHT22;68700;48.534;9.196;2023-07-22T06:41:00;18.00;1.00
12845;DHT22;68700;48.534;9.196;2023-07-22T06:44:23;18.40;1.00
12845;DHT22;68700;48.534;9.196;2023-07-22T06:47:45;18.70;1.00
12845;DHT22;68700;48.534;9.196;2023-07-22T06:51:07;19.30;1.00
12845;DHT22;68700;48.534;9.196;2023-07-22T06:54:29;19.40;1.00
12845;DHT22;68700;48.534;9.196;2023-07-22T06:57:51;19.60;1.00
12845;DHT22;68700;48.534;9.196;2023-07-22T07:01:14;20.30;1.00
12845;DHT22;68700;48.534;9.196;2023-07-22T07:04:36;20.50;1.00
12845;DHT22;68700;48.534;9.196;2023-07-22T07:07:58;20.90;1.00
12845;DHT22;68700;48.534;9.196;2023-07-22T07:11:19;20.90;1.00
12845;DHT22;68700;48.534;9.196;2023-07-22T07:14:41;20.90;1.00
12845;DHT22;68700;48.534;9.196;2023-07-22T07:18:05;21.90;1.00
12845;DHT22;68700;48.534;9.196;2023-07-22T07:21:27;21.40;1.00
12845;DHT22;68700;48.534;9.196;2023-07-22T07:24:49;21.70;1.00
12845;DHT22;68700;48.534;9.196;2023-07-22T07:28:11;22.20;1.00
12845;DHT22;68700;48.534;9.196;2023-07-22T07:31:34;22.60;99.90
12845;DHT22;68700;48.534;9.196;2023-07-22T07:34:57;22.90;99.90
12845;DHT22;68700;48.534;9.196;2023-07-22T07:38:19;22.20;99.90
12845;DHT22;68700;48.534;9.196;2023-07-22T07:41:41;22.10;1.00
12845;DHT22;68700;48.534;9.196;2023-07-22T07:45:03;22.80;99.90
12845;DHT22;68700;48.534;9.196;2023-07-22T07:48:25;23.20;99.90
12845;DHT22;68700;48.534;9.196;2023-07-22T07:51:48;23.60;99.90
12845;DHT22;68700;48.534;9.196;2023-07-22T07:55:10;24.20;99.90
12845;DHT22;68700;48.534;9.196;2023-07-22T07:58:32;24.70;99.90
12845;DHT22;68700;48.534;9.196;2023-07-22T08:01:54;24.20;99.90
12845;DHT22;68700;48.534;9.196;2023-07-22T08:05:16;24.50;99.90
12845;DHT22;68700;48.534;9.196;2023-07-22T08:08:39;24.30;99.90
12845;DHT22;68700;48.534;9.196;2023-07-22T08:12:01;25.70;99.90
12845;DHT22;68700;48.534;9.196;2023-07-22T08:15:23;25.50;99.90
12845;DHT22;68700;48.534;9.196;2023-07-22T08:18:45;26.10;99.90
12845;DHT22;68700;48.534;9.196;2023-07-22T08:22:07;27.90;99.90
12845;DHT22;68700;48.534;9.196;2023-07-22T08:25:30;27.70;99.90
12845;DHT22;68700;48.534;9.196;2023-07-22T08:28:52;27.80;99.90
12845;DHT22;68700;48.534;9.196;2023-07-22T08:32:14;27.20;99.90
12845;DHT22;68700;48.534;9.196;2023-07-22T08:35:36;27.60;99.90
12845;DHT22;68700;48.534;9.196;2023-07-22T08:38:58;27.50;99.90
12845;DHT22;68700;48.534;9.196;2023-07-22T08:42:23;27.30;99.90
12845;DHT22;68700;48.534;9.196;2023-07-22T08:45:46;27.40;99.90
12845;DHT22;68700;48.534;9.196;2023-07-22T08:49:09;27.30;99.90
12845;DHT22;68700;48.534;9.196;2023-07-22T08:52:31;26.70;99.90
12845;DHT22;68700;48.534;9.196;2023-07-22T08:55:54;26.70;99.90
12845;DHT22;68700;48.534;9.196;2023-07-22T08:59:19;26.90;99.90
12845;DHT22;68700;48.534;9.196;2023-07-22T09:02:41;27.70;99.90
12845;DHT22;68700;48.534;9.196;2023-07-22T09:06:04;26.30;99.90
12845;DHT22;68700;48.534;9.196;2023-07-22T09:09:26;27.50;99.90
12845;DHT22;68700;48.534;9.196;2023-07-22T09:12:48;28.80;99.90
12845;DHT22;68700;48.534;9.196;2023-07-22T09:16:13;29.20;99.90
12845;DHT22;68700;48.534;9.196;2023-07-22T09:19:35;29.70;99.90
12845;DHT22;68700;48.534;9.196;2023-07-22T09:23:00;30.00;99.90
12845;DHT22;68700;48.534;9.196;2023-07-22T09:26:22;28.40;99.90
12845;DHT22;68700;48.534;9.196;2023-07-22T09:29:44;28.30;99.90
12845;DHT22;68700;48.534;9.196;2023-07-22T09:33:21;28.80;99.90
12845;DHT22;68700;48.534;9.196;2023-07-22T09:36:51;28.60;99.90
12845;DHT22;68700;48.534;9.196;2023-07-22T09:40:20;26.70;99.90
12845;DHT22;68700;48.534;9.196;2023-07-22T09:43:47;28.10;99.90
12845;DHT22;68700;48.534;9.196;2023-07-22T09:47:09;28.80;99.90
12845;DHT22;68700;48.534;9.196;2023-07-22T09:50:32;28.10;99.90
12845;DHT22;68700;48.534;9.196;2023-07-22T09:54:00;29.00;99.90
12845;DHT22;68700;48.534;9.196;2023-07-22T09:57:22;28.20;99.90
12845;DHT22;68700;48.534;9.196;2023-07-22T10:00:47;28.10;99.90
12845;DHT22;68700;48.534;9.196;2023-07-22T10:04:10;27.70;99.90
12845;DHT22;68700;48.534;9.196;2023-07-22T10:07:35;27.30;99.90
12845;DHT22;68700;48.534;9.196;2023-07-22T10:10:59;27.50;99.90
12845;DHT22;68700;48.534;9.196;2023-07-22T10:14:22;28.20;99.90
12845;DHT22;68700;48.534;9.196;2023-07-22T10:17:44;27.90;99.90
12845;DHT22;68700;48.534;9.196;2023-07-22T10:21:06;27.80;99.90
12845;DHT22;68700;48.534;9.196;2023-07-22T10:24:31;26.40;99.90
12845;DHT22;68700;48.534;9.196;2023-07-22T10:27:54;28.20;99.90
12845;DHT22;68700;48.534;9.196;2023-07-22T10:31:16;27.40;99.90
12845;DHT22;68700;48.534;9.196;2023-07-22T10:34:39;28.00;99.90
12845;DHT22;68700;48.534;9.196;2023-07-22T10:38:07;28.00;99.90
12845;DHT22;68700;48.534;9.196;2023-07-22T10:41:32;27.10;99.90
12845;DHT22;68700;48.534;9.196;2023-07-22T10:44:54;26.50;99.90
12845;DHT22;68700;48.534;9.196;2023-07-22T10:48:16;27.20;99.90
12845;DHT22;68700;48.534;9.196;2023-07-22T10:51:38;27.10;99.90
12845;DHT22;68700;48.534;9.196;2023-07-22T10:55:00;26.70;99.90
12845;DHT22;68700;48.534;9.196;2023-07-22T10:58:23;27.30;99.90
12845;DHT22;68700;48.534;9.196;2023-07-22T11:01:45;28.70;99.90
12845;DHT22;68700;48.534;9.196;2023-07-22T11:05:11;27.70;99.90
12845;DHT22;68700;48.534;9.196;2023-07-22T11:08:37;27.40;99.90
12845;DHT22;68700;48.534;9.196;2023-07-22T11:12:03;26.70;99.90
12845;DHT22;68700;48.534;9.196;2023-07-22T11:15:29;26.20;99.90
12845;DHT22;68700;48.534;9.196;2023-07-22T11:18:51;25.80;99.90
12845;DHT22;68700;48.534;9.196;2023-07-22T11:22:13;27.50;99.90
12845;DHT22;68700;48.534;9.196;2023-07-22T11:25:35;29.40;99.90
12845;DHT22;68700;48.534;9.196;2023-07-22T11:28:57;30.20;99.90
12845;DHT22;68700;48.534;9.196;2023-07-22T11:32:20;29.70;99.90
12845;DHT22;68700;48.534;9.196;2023-07-22T11:35:42;29.70;99.90
12845;DHT22;68700;48.534;9.196;2023-07-22T11:39:05;30.70;99.90
12845;DHT22;68700;48.534;9.196;2023-07-22T11:42:28;31.20;99.90
12845;DHT22;68700;48.534;9.196;2023-07-22T11:45:50;30.90;99.90
12845;DHT22;68700;48.534;9.196;2023-07-22T11:49:31;30.80;99.90
12845;DHT22;68700;48.534;9.196;2023-07-22T11:52:54;30.20;99.90
12845;DHT22;68700;48.534;9.196;2023-07-22T11:56:20;28.10;99.90
12845;DHT22;68700;48.534;9.196;2023-07-22T11:59:44;29.10;99.90
12845;DHT22;68700;48.534;9.196;2023-07-22T12:03:06;30.30;99.90
12845;DHT22;68700;48.534;9.196;2023-07-22T12:06:31;28.80;99.90
12845;DHT22;68700;48.534;9.196;2023-07-22T12:09:55;28.50;99.90
12845;DHT22;68700;48.534;9.196;2023-07-22T12:13:17;28.10;99.90
12845;DHT22;68700;48.534;9.196;2023-07-22T12:16:41;28.00;99.90
12845;DHT22;68700;48.534;9.196;2023-07-22T12:20:05;29.50;99.90
12845;DHT22;68700;48.534;9.196;2023-07-22T12:23:29;30.90;99.90
12845;DHT22;68700;48.534;9.196;2023-07-22T12:26:51;30.30;99.90
12845;DHT22;68700;48.534;9.196;2023-07-22T12:30:13;30.90;99.90
12845;DHT22;68700;48.534;9.196;2023-07-22T12:33:36;30.50;99.90
12845;DHT22;68700;48.534;9.196;2023-07-22T12:36:57;29.90;99.90
12845;DHT22;68700;48.534;9.196;2023-07-22T12:40:20;29.30;99.90
12845;DHT22;68700;48.534;9.196;2023-07-22T12:43:42;28.80;99.90
12845;DHT22;68700;48.534;9.196;2023-07-22T12:47:04;28.20;99.90
12845;DHT22;68700;48.534;9.196;2023-07-22T12:50:26;27.70;99.90
12845;DHT22;68700;48.534;9.196;2023-07-22T12:53:48;27.00;99.90
12845;DHT22;68700;48.534;9.196;2023-07-22T12:57:11;27.10;99.90
12845;DHT22;68700;48.534;9.196;2023-07-22T13:00:33;29.00;99.90
12845;DHT22;68700;48.534;9.196;2023-07-22T13:03:55;29.40;99.90
12845;DHT22;68700;48.534;9.196;2023-07-22T13:07:17;30.70;99.90
12845;DHT22;68700;48.534;9.196;2023-07-22T13:10:39;30.30;99.90
12845;DHT22;68700;48.534;9.196;2023-07-22T13:14:05;29.10;99.90
12845;DHT22;68700;48.534;9.196;2023-07-22T13:17:27;28.30;99.90
12845;DHT22;68700;48.534;9.196;2023-07-22T13:20:49;28.00;99.90
12845;DHT22;68700;48.534;9.196;2023-07-22T13:24:11;29.20;99.90
12845;DHT22;68700;48.534;9.196;2023-07-22T13:27:32;29.50;99.90
12845;DHT22;68700;48.534;9.196;2023-07-22T13:30:56;30.40;99.90
12845;DHT22;68700;48.534;9.196;2023-07-22T13:34:18;30.20;99.90
12845;DHT22;68700;48.534;9.196;2023-07-22T13:37:39;30.90;99.90
12845;DHT22;68700;48.534;9.196;2023-07-22T13:41:01;30.60;99.90
12845;DHT22;68700;48.534;9.196;2023-07-22T13:44:23;31.10;99.90
12845;DHT22;68700;48.534;9.196;2023-07-22T13:47:47;31.20;99.90
12845;DHT22;68700;48.534;9.196;2023-07-22T13:51:09;28.90;99.90
12845;DHT22;68700;48.534;9.196;2023-07-22T13:54:30;28.60;99.90
12845;DHT22;68700;48.534;9.196;2023-07-22T13:57:52;29.90;99.90
12845;DHT22;68700;48.534;9.196;2023-07-22T14:01:14;30.70;99.90
12845;DHT22;68700;48.534;9.196;2023-07-22T14:04:37;30.60;99.90
12845;DHT22;68700;48.534;9.196;2023-07-22T14:07:59;30.20;99.90
12845;DHT22;68700;48.534;9.196;2023-07-22T14:11:21;29.80;99.90
12845;DHT22;68700;48.534;9.196;2023-07-22T14:14:43;30.10;99.90
12845;DHT22;68700;48.534;9.196;2023-07-22T14:18:04;30.30;99.90
12845;DHT22;68700;48.534;9.196;2023-07-22T14:21:28;30.50;99.90
12845;DHT22;68700;48.534;9.196;2023-07-22T14:24:49;30.90;99.90
12845;DHT22;68700;48.534;9.196;2023-07-22T14:28:11;30.00;99.90
12845;DHT22;68700;48.534;9.196;2023-07-22T14:31:33;30.00;99.90
12845;DHT22;68700;48.534;9.196;2023-07-22T14:34:55;29.30;99.90
12845;DHT22;68700;48.534;9.196;2023-07-22T14:38:18;29.70;99.90
12845;DHT22;68700;48.534;9.196;2023-07-22T14:41:41;29.30;99.90
12845;DHT22;68700;48.534;9.196;2023-07-22T14:45:04;29.40;99.90
12845;DHT22;68700;48.534;9.196;2023-07-22T14:48:28;29.80;99.90
12845;DHT22;68700;48.534;9.196;2023-07-22T14:51:50;30.70;99.90
12845;DHT22;68700;48.534;9.196;2023-07-22T14:55:13;30.70;99.90
12845;DHT22;68700;48.534;9.196;2023-07-22T14:58:35;30.40;99.90
12845;DHT22;68700;48.534;9.196;2023-07-22T15:01:56;29.30;99.90
12845;DHT22;68700;48.534;9.196;2023-07-22T15:05:18;30.20;99.90
12845;DHT22;68700;48.534;9.196;2023-07-22T15:12:59;29.30;99.90
12845;DHT22;68700;48.534;9.196;2023-07-22T15:16:21;28.90;99.90
12845;DHT22;68700;48.534;9.196;2023-07-22T15:19:42;28.70;99.90
12845;DHT22;68700;48.534;9.196;2023-07-22T15:23:04;28.80;99.90
12845;DHT22;68700;48.534;9.196;2023-07-22T15:26:26;28.00;99.90
12845;DHT22;68700;48.534;9.196;2023-07-22T15:29:49;27.80;99.90
12845;DHT22;68700;48.534;9.196;2023-07-22T15:33:11;28.00;99.90
12845;DHT22;68700;48.534;9.196;2023-07-22T15:36:33;27.20;99.90
12845;DHT22;68700;48.534;9.196;2023-07-22T15:39:55;27.10;99.90
12845;DHT22;68700;48.534;9.196;2023-07-22T15:43:16;27.30;99.90
12845;DHT22;68700;48.534;9.196;2023-07-22T15:46:40;27.30;99.90
12845;DHT22;68700;48.534;9.196;2023-07-22T15:50:01;26.70;99.90
12845;DHT22;68700;48.534;9.196;2023-07-22T15:53:23;26.80;99.90
12845;DHT22;68700;48.534;9.196;2023-07-22T15:56:45;26.40;99.90
12845;DHT22;68700;48.534;9.196;2023-07-22T16:00:08;26.80;99.90
12845;DHT22;68700;48.534;9.196;2023-07-22T16:03:33;27.00;99.90
12845;DHT22;68700;48.534;9.196;2023-07-22T16:06:56;26.80;99.90
12845;DHT22;68700;48.534;9.196;2023-07-22T16:10:18;26.60;99.90
12845;DHT22;68700;48.534;9.196;2023-07-22T16:13:40;26.60;99.90
12845;DHT22;68700;48.534;9.196;2023-07-22T16:17:02;26.40;99.90
12845;DHT22;68700;48.534;9.196;2023-07-22T16:20:25;26.70;99.90
12845;DHT22;68700;48.534;9.196;2023-07-22T16:23:47;26.10;99.90
12845;DHT22;68700;48.534;9.196;2023-07-22T16:27:09;26.20;99.90
12845;DHT22;68700;48.534;9.196;2023-07-22T16:30:31;26.50;99.90
12845;DHT22;68700;48.534;9.196;2023-07-22T16:33:53;26.40;99.90
12845;DHT22;68700;48.534;9.196;2023-07-22T16:37:18;26.40;99.90
12845;DHT22;68700;48.534;9.196;2023-07-22T16:40:39;26.30;99.90
12845;DHT22;68700;48.534;9.196;2023-07-22T16:44:01;26.00;99.90
12845;DHT22;68700;48.534;9.196;2023-07-22T16:47:23;26.40;99.90
12845;DHT22;68700;48.534;9.196;2023-07-22T16:50:45;26.60;99.90
12845;DHT22;68700;48.534;9.196;2023-07-22T16:54:08;26.90;99.90
12845;DHT22;68700;48.534;9.196;2023-07-22T16:57:30;27.00;99.90
12845;DHT22;68700;48.534;9.196;2023-07-22T17:00:52;26.70;99.90
12845;DHT22;68700;48.534;9.196;2023-07-22T17:04:14;26.70;99.90
12845;DHT22;68700;48.534;9.196;2023-07-22T17:07:36;26.00;99.90
12845;DHT22;68700;48.534;9.196;2023-07-22T17:11:00;26.10;99.90
12845;DHT22;68700;48.534;9.196;2023-07-22T17:14:22;26.10;99.90
12845;DHT22;68700;48.534;9.196;2023-07-22T17:17:44;25.70;99.90
12845;DHT22;68700;48.534;9.196;2023-07-22T17:21:06;25.50;99.90
12845;DHT22;68700;48.534;9.196;2023-07-22T17:24:28;25.60;99.90
12845;DHT22;68700;48.534;9.196;2023-07-22T17:27:51;25.90;99.90
12845;DHT22;68700;48.534;9.196;2023-07-22T17:31:13;25.80;99.90
12845;DHT22;68700;48.534;9.196;2023-07-22T17:34:35;25.80;99.90
12845;DHT22;68700;48.534;9.196;2023-07-22T17:37:57;25.50;99.90
12845;DHT22;68700;48.534;9.196;2023-07-22T17:41:19;25.40;99.90
12845;DHT22;68700;48.534;9.196;2023-07-22T17:44:42;25.40;99.90
12845;DHT22;68700;48.534;9.196;2023-07-22T17:48:05;25.40;99.90
12845;DHT22;68700;48.534;9.196;2023-07-22T17:51:26;25.20;99.90
12845;DHT22;68700;48.534;9.196;2023-07-22T17:54:48;25.20;99.90
12845;DHT22;68700;48.534;9.196;2023-07-22T17:58:10;25.00;99.90
12845;DHT22;68700;48.534;9.196;2023-07-22T18:01:33;25.00;99.90
12845;DHT22;68700;48.534;9.196;2023-07-22T18:04:55;24.90;99.90
12845;DHT22;68700;48.534;9.196;2023-07-22T18:08:17;24.80;99.90
12845;DHT22;68700;48.534;9.196;2023-07-22T18:11:38;24.70;99.90
12845;DHT22;68700;48.534;9.196;2023-07-22T18:15:00;24.60;99.90
12845;DHT22;68700;48.534;9.196;2023-07-22T18:18:24;24.40;99.90
12845;DHT22;68700;48.534;9.196;2023-07-22T18:21:45;24.40;99.90
12845;DHT22;68700;48.534;9.196;2023-07-22T18:25:08;24.20;99.90
12845;DHT22;68700;48.534;9.196;2023-07-22T18:28:31;24.00;99.90
12845;DHT22;68700;48.534;9.196;2023-07-22T18:31:53;23.90;99.90
12845;DHT22;68700;48.534;9.196;2023-07-22T18:35:16;23.80;99.90
12845;DHT22;68700;48.534;9.196;2023-07-22T18:38:38;23.70;99.90
12845;DHT22;68700;48.534;9.196;2023-07-22T18:42:00;23.60;99.90
12845;DHT22;68700;48.534;9.196;2023-07-22T18:45:22;23.50;99.90
12845;DHT22;68700;48.534;9.196;2023-07-22T18:48:44;23.40;99.90
12845;DHT22;68700;48.534;9.196;2023-07-22T18:52:07;23.20;99.90
12845;DHT22;68700;48.534;9.196;2023-07-22T18:55:29;23.10;99.90
12845;DHT22;68700;48.534;9.196;2023-07-22T18:58:51;22.90;99.90
12845;DHT22;68700;48.534;9.196;2023-07-22T19:02:13;22.70;99.90
12845;DHT22;68700;48.534;9.196;2023-07-22T19:05:37;22.60;99.90
12845;DHT22;68700;48.534;9.196;2023-07-22T19:09:00;22.40;99.90
12845;DHT22;68700;48.534;9.196;2023-07-22T19:12:22;22.20;99.90
12845;DHT22;68700;48.534;9.196;2023-07-22T19:15:46;22.00;99.90
12845;DHT22;68700;48.534;9.196;2023-07-22T19:19:08;21.80;99.90
12845;DHT22;68700;48.534;9.196;2023-07-22T19:22:30;21.60;99.90
12845;DHT22;68700;48.534;9.196;2023-07-22T19:25:53;21.40;99.90
12845;DHT22;68700;48.534;9.196;2023-07-22T19:29:15;21.20;99.90
12845;DHT22;68700;48.534;9.196;2023-07-22T19:32:37;21.10;99.90
12845;DHT22;68700;48.534;9.196;2023-07-22T19:36:00;21.00;99.90
12845;DHT22;68700;48.534;9.196;2023-07-22T19:39:22;20.80;99.90
12845;DHT22;68700;48.534;9.196;2023-07-22T19:42:45;20.70;99.90
12845;DHT22;68700;48.534;9.196;2023-07-22T19:46:08;20.60;99.90
12845;DHT22;68700;48.534;9.196;2023-07-22T19:49:31;20.50;99.90
12845;DHT22;68700;48.534;9.196;2023-07-22T19:52:52;20.40;99.90
12845;DHT22;68700;48.534;9.196;2023-07-22T19:56:14;20.20;99.90
12845;DHT22;68700;48.534;9.196;2023-07-22T19:59:37;20.10;99.90
12845;DHT22;68700;48.534;9.196;2023-07-22T20:02:59;20.00;99.90
12845;DHT22;68700;48.534;9.196;2023-07-22T20:06:21;19.90;99.90
12845;DHT22;68700;48.534;9.196;2023-07-22T20:09:43;19.80;99.90
12845;DHT22;68700;48.534;9.196;2023-07-22T20:13:05;19.70;99.90
12845;DHT22;68700;48.534;9.196;2023-07-22T20:16:28;19.70;99.90
12845;DHT22;68700;48.534;9.196;2023-07-22T20:19:50;19.60;99.90
12845;DHT22;68700;48.534;9.196;2023-07-22T20:23:12;19.50;99.90
12845;DHT22;68700;48.534;9.196;2023-07-22T20:26:34;19.40;99.90
12845;DHT22;68700;48.534;9.196;2023-07-22T20:29:56;19.30;99.90
12845;DHT22;68700;48.534;9.196;2023-07-22T20:33:19;19.30;99.90
12845;DHT22;68700;48.534;9.196;2023-07-22T20:36:41;19.20;99.90
12845;DHT22;68700;48.534;9.196;2023-07-22T20:40:03;19.10;99.90
12845;DHT22;68700;48.534;9.196;2023-07-22T20:43:25;19.00;99.90
12845;DHT22;68700;48.534;9.196;2023-07-22T20:46:46;19.00;99.90
12845;DHT22;68700;48.534;9.196;2023-07-22T20:50:10;18.90;99.90
12845;DHT22;68700;48.534;9.196;2023-07-22T20:53:32;18.90;99.90
12845;DHT22;68700;48.534;9.196;2023-07-22T20:56:54;18.80;99.90
12845;DHT22;68700;48.534;9.196;2023-07-22T21:00:16;18.80;99.90
12845;DHT22;68700;48.534;9.196;2023-07-22T21:03:38;18.80;99.90
12845;DHT22;68700;48.534;9.196;2023-07-22T21:07:03;18.80;99.90
12845;DHT22;68700;48.534;9.196;2023-07-22T21:10:25;18.70;99.90
12845;DHT22;68700;48.534;9.196;2023-07-22T21:13:47;18.60;99.90
12845;DHT22;68700;48.534;9.196;2023-07-22T21:17:08;18.50;1.00
12845;DHT22;68700;48.534;9.196;2023-07-22T21:20:30;18.40;1.00
12845;DHT22;68700;48.534;9.196;2023-07-22T21:23:53;18.30;1.00
12845;DHT22;68700;48.534;9.196;2023-07-22T21:27:15;18.30;1.00
12845;DHT22;68700;48.534;9.196;2023-07-22T21:30:37;18.30;1.00